Time;durP1;ratioP1;P1;durP2;ratioP2;P2;SDS_P1;SDS_P2;PMS_P1;PMS_P2;Temp;Humidity;BMP_temperature;BMP_pressure;BME280_temperature;BME280_humidity;BME280_pressure;Samples;Min_cycle;Max_cycle;Signal;HPM_P1;HPM_P2
2022/05/09 00:02:16;;;;;;;12.73;5.97;;;;;;;13.06;53.90;102602.81;5072012;28;20089;-60
2022/05/09 00:04:45;;;;;;;16.35;5.78;;;;;;;13.03;53.59;102605.59;5071352;28;20028;-60
2022/05/09 00:07:10;;;;;;;13.07;5.25;;;;;;;13.08;52.69;102596.44;5070900;28;20044;-60
2022/05/09 00:09:37;;;;;;;12.35;6.00;;;;;;;12.99;53.31;102590.66;5053237;28;20039;-61
2022/05/09 00:12:05;;;;;;;13.35;5.80;;;;;;;12.89;53.21;102587.56;5069825;28;20479;-60
2022/05/09 00:14:31;;;;;;;13.50;5.47;;;;;;;12.86;53.78;102590.38;5069283;28;20035;-60
2022/05/09 00:16:56;;;;;;;11.40;5.97;;;;;;;12.79;53.51;102587.09;5070215;28;20408;-60
2022/05/09 00:19:22;;;;;;;14.55;5.53;;;;;;;12.65;53.80;102578.84;5069585;28;20028;-60
2022/05/09 00:21:50;;;;;;;11.43;5.50;;;;;;;12.67;54.01;102584.97;5072094;28;20063;-60
2022/05/09 00:24:17;;;;;;;13.13;5.35;;;;;;;12.56;54.20;102580.09;5071360;28;20380;-60
2022/05/09 00:26:46;;;;;;;12.65;6.03;;;;;;;12.37;54.54;102589.84;5070343;28;20438;-60
2022/05/09 00:29:14;;;;;;;;;;;;;;;12.74;52.65;102581.09;5072083;28;20032;-60
2022/05/09 00:31:43;;;;;;;13.48;5.75;;;;;;;12.40;54.10;102579.03;5072039;28;19935;-61
2022/05/09 00:34:10;;;;;;;11.07;5.65;;;;;;;12.29;54.93;102584.81;5072130;28;20028;-60
2022/05/09 00:36:36;;;;;;;11.27;5.63;;;;;;;12.26;55.33;102584.94;5071992;28;20035;-60
2022/05/09 00:39:02;;;;;;;11.23;5.65;;;;;;;12.19;54.72;102583.47;5070994;28;20020;-61
2022/05/09 00:41:34;;;;;;;10.60;5.40;;;;;;;12.03;55.58;102577.91;5071428;28;20028;-61
2022/05/09 00:44:07;;;;;;;10.13;5.43;;;;;;;12.17;55.17;102572.00;5070866;28;20024;-60
2022/05/09 00:46:33;;;;;;;14.63;6.10;;;;;;;12.24;55.09;102582.34;5071731;28;20059;-60
2022/05/09 00:49:12;;;;;;;12.60;5.88;;;;;;;12.16;55.45;102576.47;5070255;28;20025;-60
2022/05/09 00:51:38;;;;;;;12.30;5.57;;;;;;;12.28;55.35;102577.75;5072184;28;20016;-60
2022/05/09 00:54:05;;;;;;;12.63;5.88;;;;;;;12.16;55.12;102571.13;5070759;28;20023;-60
2022/05/09 00:56:45;;;;;;;12.00;6.20;;;;;;;12.21;54.90;102570.94;5069874;28;20024;-61
2022/05/09 00:59:15;;;;;;;16.27;6.63;;;;;;;12.15;55.00;102573.88;5068972;28;20024;-60
2022/05/09 01:01:41;;;;;;;12.60;6.07;;;;;;;12.07;55.25;102578.66;5069679;28;20112;-60
2022/05/09 01:04:17;;;;;;;11.40;6.10;;;;;;;12.17;54.75;102577.31;5070171;28;20016;-60
2022/05/09 01:06:43;;;;;;;10.10;6.22;;;;;;;12.17;55.03;102577.31;5071403;28;20098;-60
2022/05/09 01:09:10;;;;;;;12.40;6.35;;;;;;;12.07;55.13;102571.50;5052588;28;20033;-60
2022/05/09 01:11:37;;;;;;;16.70;6.13;;;;;;;12.12;55.05;102561.53;5053073;28;20052;-60
2022/05/09 01:14:10;;;;;;;11.88;5.47;;;;;;;12.08;55.19;102559.03;5069927;28;20086;-60
2022/05/09 01:16:36;;;;;;;13.90;5.43;;;;;;;12.07;55.07;102568.00;5069957;28;20021;-60
2022/05/09 01:19:25;;;;;;;10.43;5.03;;;;;;;11.94;55.77;102556.94;5071387;28;20479;-60
2022/05/09 01:21:53;;;;;;;12.43;5.22;;;;;;;11.87;56.03;102558.13;5071006;28;20040;-60
2022/05/09 01:24:21;;;;;;;13.43;5.93;;;;;;;11.86;56.04;102557.28;5069925;28;20437;-60
2022/05/09 01:26:47;;;;;;;14.35;5.80;;;;;;;11.88;55.52;102557.19;5071032;28;20029;-60
2022/05/09 01:29:19;;;;;;;13.18;5.78;;;;;;;11.85;55.49;102552.84;5070134;28;20547;-61
2022/05/09 01:31:47;;;;;;;13.43;6.22;;;;;;;11.82;55.80;102553.84;5070264;28;20107;-60
2022/05/09 01:34:16;;;;;;;13.73;5.57;;;;;;;11.71;56.00;102563.22;5068809;28;20021;-62
2022/05/09 01:36:42;;;;;;;12.63;5.75;;;;;;;11.71;56.21;102552.53;5069355;28;20020;-60
2022/05/09 01:39:11;;;;;;;13.30;6.00;;;;;;;11.62;56.80;102555.56;5068958;28;20453;-60
2022/05/09 01:41:43;;;;;;;14.15;5.82;;;;;;;11.69;56.73;102551.72;5068933;28;20024;-60
2022/05/09 01:44:13;;;;;;;8.70;5.18;;;;;;;11.67;56.54;102550.91;5068762;28;20387;-61
2022/05/09 01:49:31;;;;;;;12.05;6.32;;;;;;;11.57;56.83;102558.41;5070194;28;20099;-60
2022/05/09 01:51:59;;;;;;;13.73;5.85;;;;;;;11.56;57.23;102548.69;5070219;28;20036;-60
2022/05/09 01:54:25;;;;;;;14.13;6.30;;;;;;;11.33;57.68;102545.13;5066577;28;20032;-60
2022/05/09 01:56:50;;;;;;;13.18;5.93;;;;;;;11.25;57.92;102554.34;5069030;28;20035;-60
2022/05/09 01:59:17;;;;;;;15.20;5.72;;;;;;;11.37;57.43;102556.53;5070212;28;20037;-60
2022/05/09 02:01:55;;;;;;;11.73;5.40;;;;;;;11.26;57.71;102543.63;5070839;28;20052;-60
2022/05/09 02:04:20;;;;;;;15.23;5.70;;;;;;;11.26;58.10;102558.72;5068872;28;20071;-61
2022/05/09 02:06:46;;;;;;;15.73;6.18;;;;;;;11.29;58.04;102555.94;5070971;28;20059;-60
2022/05/09 02:09:12;;;;;;;13.80;6.10;;;;;;;11.21;58.20;102552.75;5051578;28;20465;-60
2022/05/09 02:11:42;;;;;;;15.07;6.22;;;;;;;11.19;58.57;102557.25;5070347;28;20024;-60
2022/05/09 02:14:08;;;;;;;14.65;6.38;;;;;;;11.05;58.80;102549.78;5067089;28;20032;-60
2022/05/09 02:16:35;;;;;;;11.05;5.85;;;;;;;10.98;58.63;102553.59;5070778;28;20056;-60
2022/05/09 02:19:00;;;;;;;13.85;6.50;;;;;;;10.98;59.02;102545.63;5070111;28;20051;-60
2022/05/09 02:21:26;;;;;;;12.80;6.30;;;;;;;10.84;59.46;102540.78;5071100;28;20039;-60
2022/05/09 02:23:51;;;;;;;16.42;5.97;;;;;;;10.86;59.44;102541.63;5069915;28;20029;-60
2022/05/09 02:26:17;;;;;;;13.93;6.13;;;;;;;10.87;59.16;102546.00;5069014;28;20166;-60
2022/05/09 02:28:43;;;;;;;12.65;6.97;;;;;;;10.69;59.70;102540.44;5070240;28;20031;-60
2022/05/09 02:31:08;;;;;;;15.40;6.22;;;;;;;10.80;59.49;102544.50;5069641;28;20029;-60
2022/05/09 02:33:34;;;;;;;14.75;5.85;;;;;;;10.66;59.69;102545.00;5076228;28;20098;-60
2022/05/09 02:36:00;;;;;;;16.30;6.25;;;;;;;10.62;60.08;102541.59;5070223;28;20039;-60
2022/05/09 02:38:29;;;;;;;12.93;6.15;;;;;;;10.66;60.33;102537.88;5074123;28;20040;-60
2022/05/09 02:40:55;;;;;;;14.00;6.20;;;;;;;10.52;60.08;102540.16;5073192;28;20552;-60
2022/05/09 02:43:22;;;;;;;12.85;6.13;;;;;;;10.61;60.10;102533.66;5072647;28;20086;-60
2022/05/09 02:45:48;;;;;;;11.07;5.88;;;;;;;10.53;60.31;102536.59;5073852;28;20048;-60
2022/05/09 02:48:16;;;;;;;16.52;6.53;;;;;;;10.54;60.83;102530.34;5072522;28;20020;-60
2022/05/09 02:50:44;;;;;;;13.02;6.50;;;;;;;10.60;60.44;102530.13;5071887;28;20035;-60
2022/05/09 02:53:13;;;;;;;13.93;6.88;;;;;;;10.55;60.54;102533.88;5072372;28;20106;-60
2022/05/09 02:55:39;;;;;;;12.48;6.30;;;;;;;10.53;60.08;102536.59;5072032;28;20170;-60
2022/05/09 02:58:05;;;;;;;14.63;6.65;;;;;;;10.45;60.73;102531.53;5072004;28;20111;-60
2022/05/09 03:00:32;;;;;;;11.65;6.25;;;;;;;10.46;61.16;102540.38;5073136;28;20025;-60
2022/05/09 03:05:43;;;;;;;14.40;6.07;;;;;;;10.40;60.76;102533.47;5071598;28;20051;-60
2022/05/09 03:08:10;;;;;;;14.15;6.75;;;;;;;10.36;60.18;102531.88;5073149;28;20050;-60
2022/05/09 03:10:37;;;;;;;15.05;7.00;;;;;;;10.35;61.40;102523.94;5079763;28;20025;-60
2022/05/09 03:13:04;;;;;;;15.95;6.78;;;;;;;10.16;61.65;102526.34;5073125;28;20531;-60
2022/05/09 03:15:33;;;;;;;13.27;6.05;;;;;;;10.19;61.46;102528.88;5073596;28;20021;-60
2022/05/09 03:17:58;;;;;;;15.90;6.72;;;;;;;10.17;61.64;102520.94;5073753;28;20028;-60
2022/05/09 03:20:26;;;;;;;12.57;6.65;;;;;;;10.15;61.86;102529.94;5071616;28;20021;-60
2022/05/09 03:22:52;;;;;;;14.13;6.60;;;;;;;10.15;61.30;102529.94;5070972;28;20494;-60
2022/05/09 03:25:18;;;;;;;16.00;6.68;;;;;;;10.10;62.07;102518.56;5071554;28;20032;-60
2022/05/09 03:27:44;;;;;;;12.15;6.28;;;;;;;10.18;61.51;102517.38;5071811;28;20035;-60
2022/05/09 03:30:11;;;;;;;17.48;7.22;;;;;;;10.15;61.91;102521.94;5053996;28;20028;-60
2022/05/09 03:32:38;;;;;;;15.20;6.95;;;;;;;10.14;61.63;102523.72;5073205;28;20444;-60
2022/05/09 03:35:08;;;;;;;13.75;7.30;;;;;;;10.08;62.00;102518.59;5072421;28;20052;-60
2022/05/09 03:37:37;;;;;;;15.88;6.80;;;;;;;10.10;61.95;102516.78;5072171;28;20037;-60
2022/05/09 03:40:04;;;;;;;13.57;6.90;;;;;;;10.12;61.84;102508.75;5073055;28;20395;-61
2022/05/09 03:42:29;;;;;;;12.50;6.65;;;;;;;10.00;62.12;102507.41;5072470;28;20038;-60
2022/05/09 03:44:55;;;;;;;16.45;7.60;;;;;;;10.02;62.37;102513.50;5071970;28;20040;-60
2022/05/09 03:47:23;;;;;;;12.50;6.35;;;;;;;9.88;62.36;102514.00;5089092;28;20078;-60
2022/05/09 03:49:54;;;;;;;16.60;7.18;;;;;;;9.93;62.62;102516.47;5072080;28;20075;-59
2022/05/09 03:52:20;;;;;;;16.13;6.93;;;;;;;9.87;62.88;102509.56;5072840;28;20115;-60
2022/05/09 03:54:45;;;;;;;16.40;7.78;;;;;;;9.93;62.40;102508.50;5045858;28;20096;-60
2022/05/09 03:57:11;;;;;;;15.98;7.60;;;;;;;9.94;62.44;102512.88;5053534;28;20073;-60
2022/05/09 03:59:36;;;;;;;13.80;7.03;;;;;;;9.83;62.62;102515.06;5045348;28;20094;-60
2022/05/09 04:02:03;;;;;;;15.55;6.85;;;;;;;9.87;62.64;102512.22;5070721;28;20042;-60
2022/05/09 04:04:28;;;;;;;14.20;6.70;;;;;;;9.68;63.55;102504.00;5053703;28;20028;-60
2022/05/09 04:06:54;;;;;;;15.00;7.13;;;;;;;9.83;63.09;102513.25;5070147;28;20060;-60
2022/05/09 04:09:23;;;;;;;13.50;7.55;;;;;;;9.74;63.33;102513.56;5069871;28;20101;-60
2022/05/09 04:11:50;;;;;;;16.85;7.55;;;;;;;9.77;63.37;102511.69;5071914;28;20311;-60
2022/05/09 04:14:16;;;;;;;15.38;6.88;;;;;;;9.71;63.54;102519.00;5071607;28;20503;-60
2022/05/09 04:17:02;;;;;;;16.48;7.93;;;;;;;9.63;63.65;102489.13;5071538;28;20040;-60
2022/05/09 04:19:28;;;;;;;19.48;7.65;;;;;;;9.68;63.25;102511.97;5070914;28;20028;-60
2022/05/09 04:21:53;;;;;;;19.85;7.28;;;;;;;9.75;63.84;102510.00;5053072;28;20043;-60
2022/05/09 04:24:20;;;;;;;15.65;7.25;;;;;;;9.65;63.47;102509.44;5069388;28;20526;-60
2022/05/09 04:26:45;;;;;;;15.95;7.18;;;;;;;9.74;63.83;102511.78;5069857;28;20035;-60
2022/05/09 04:29:11;;;;;;;27.40;8.27;;;;;;;9.73;63.79;102507.38;5069644;28;20033;-60
2022/05/09 04:31:37;;;;;;;14.00;7.38;;;;;;;9.69;63.96;102511.06;5070704;28;20068;-60
2022/05/09 04:34:03;;;;;;;15.00;7.50;;;;;;;9.71;63.83;102503.91;5081723;28;20437;-60
2022/05/09 04:36:29;;;;;;;17.17;6.90;;;;;;;9.64;64.03;102502.34;5053751;28;20043;-60
2022/05/09 04:38:57;;;;;;;14.60;8.05;;;;;;;9.67;63.94;102502.25;5069015;28;20032;-60
2022/05/09 04:41:25;;;;;;;26.02;8.00;;;;;;;9.63;64.32;102505.06;5070326;28;20032;-60
2022/05/09 04:43:51;;;;;;;15.63;8.43;;;;;;;9.68;64.16;102498.69;5071622;28;20159;-60
2022/05/09 04:46:18;;;;;;;15.70;7.63;;;;;;;9.58;64.60;102504.34;5070350;28;20032;-60
2022/05/09 04:48:44;;;;;;;17.20;8.32;;;;;;;9.65;64.46;102496.16;5069049;28;20400;-61
2022/05/09 04:51:11;;;;;;;22.08;8.27;;;;;;;9.61;64.84;102502.47;5071037;28;20052;-60
2022/05/09 04:53:37;;;;;;;17.92;8.27;;;;;;;9.67;64.66;102499.59;5072158;28;20021;-60
2022/05/09 04:56:04;;;;;;;14.48;7.97;;;;;;;9.67;64.48;102496.06;5072189;28;20037;-60
2022/05/09 04:58:29;;;;;;;17.27;8.80;;;;;;;9.76;64.47;102491.34;5070355;28;20028;-60
2022/05/09 05:00:55;;;;;;;16.48;8.30;;;;;;;9.77;64.73;102495.72;5070837;28;20041;-60
2022/05/09 05:03:21;;;;;;;15.02;8.02;;;;;;;9.85;64.44;102497.25;5070872;28;20444;-60
2022/05/09 05:05:46;;;;;;;18.17;7.97;;;;;;;10.00;63.86;102491.44;5071188;28;20044;-60
2022/05/09 05:08:13;;;;;;;16.52;8.05;;;;;;;10.01;64.22;102494.03;5071985;28;20112;-60
2022/05/09 05:10:39;;;;;;;16.75;8.27;;;;;;;10.05;63.66;102484.16;5070500;28;20024;-61
2022/05/09 05:13:04;;;;;;;17.63;8.10;;;;;;;10.10;63.30;102489.31;5070891;28;20489;-60
2022/05/09 05:15:31;;;;;;;17.08;8.45;;;;;;;10.15;63.40;102480.28;5071678;28;20024;-60
2022/05/09 05:17:57;;;;;;;20.35;8.63;;;;;;;10.31;63.20;102490.41;5069551;28;20050;-60
2022/05/09 05:20:23;;;;;;;18.55;7.55;;;;;;;10.40;62.75;102492.72;5069143;28;20037;-60
2022/05/09 05:22:49;;;;;;;13.52;7.40;;;;;;;10.43;62.23;102497.94;5070655;28;20086;-60
2022/05/09 05:25:27;;;;;;;19.77;8.90;;;;;;;10.61;62.05;102497.25;5069812;28;20021;-60
2022/05/09 05:27:53;;;;;;;14.63;7.93;;;;;;;10.61;61.74;102494.59;5071048;28;20051;-60
2022/05/09 05:30:20;;;;;;;19.05;8.20;;;;;;;10.74;62.14;102495.03;5068796;28;20472;-60
2022/05/09 05:32:47;;;;;;;19.25;8.10;;;;;;;10.77;61.79;102499.38;5069851;28;20450;-60
2022/05/09 05:35:19;;;;;;;18.45;7.75;;;;;;;10.73;61.21;102493.28;5070988;28;20364;-60
2022/05/09 05:37:47;;;;;;;14.52;7.72;;;;;;;10.86;61.45;102505.22;5071047;28;20372;-60
2022/05/09 05:40:17;;;;;;;21.25;8.30;;;;;;;10.92;61.40;102496.13;5070277;28;20519;-60
2022/05/09 05:42:44;;;;;;;15.65;7.93;;;;;;;10.96;60.88;102503.06;5070474;28;20078;-60
2022/05/09 05:45:12;;;;;;;19.77;8.00;;;;;;;11.13;61.04;102497.97;5071575;28;20020;-60
2022/05/09 05:47:38;;;;;;;18.90;7.68;;;;;;;11.28;60.35;102492.97;5069639;28;20057;-60
2022/05/09 05:50:07;;;;;;;21.75;8.38;;;;;;;11.40;60.23;102494.28;5070793;28;20036;-60
2022/05/09 05:52:32;;;;;;;17.23;8.32;;;;;;;11.48;60.02;102495.69;5070408;28;20025;-60
2022/05/09 05:54:58;;;;;;;19.52;8.45;;;;;;;11.50;59.22;102492.94;5068913;28;20040;-60
2022/05/09 05:57:31;;;;;;;21.30;8.52;;;;;;;11.62;59.69;102494.25;5052876;28;20028;-60
2022/05/09 05:59:58;;;;;;;22.40;8.48;;;;;;;11.71;59.40;102496.56;5070021;28;20032;-60
2022/05/09 06:02:25;;;;;;;23.20;9.32;;;;;;;11.79;58.79;102505.97;5069503;28;20031;-60
2022/05/09 06:04:51;;;;;;;17.95;8.48;;;;;;;11.89;58.92;102489.63;5068950;28;20025;-60
2022/05/09 06:07:22;;;;;;;25.02;9.30;;;;;;;12.01;58.25;102484.63;5070288;28;20040;-60
2022/05/09 06:09:49;;;;;;;19.95;9.05;;;;;;;12.19;57.56;102498.13;5069630;28;20467;-60
2022/05/09 06:12:16;;;;;;;16.80;9.02;;;;;;;12.27;58.16;102494.19;5056541;28;20027;-60
2022/05/09 06:14:42;;;;;;;16.95;7.88;;;;;;;12.35;56.54;102483.16;5074329;28;20032;-60
2022/05/09 06:17:09;;;;;;;24.27;7.80;;;;;;;12.52;56.27;102494.88;5073371;28;20391;-60
2022/05/09 06:19:34;;;;;;;16.70;7.45;;;;;;;12.63;55.86;102500.63;5074073;28;20040;-60
2022/05/09 06:22:03;;;;;;;17.00;7.50;;;;;;;12.60;55.22;102492.75;5072947;28;20058;-60
2022/05/09 06:24:30;;;;;;;16.70;8.10;;;;;;;12.62;54.94;102502.44;5075196;28;20029;-60
2022/05/09 06:26:58;;;;;;;24.58;7.70;;;;;;;12.63;55.21;102492.63;5075516;28;20467;-60
2022/05/09 06:29:23;;;;;;;17.23;8.05;;;;;;;12.70;55.23;102496.72;5074918;28;20024;-60
2022/05/09 06:31:49;;;;;;;14.90;8.23;;;;;;;12.88;54.44;102501.25;5072620;28;20036;-60
2022/05/09 06:34:15;;;;;;;21.33;9.38;;;;;;;12.98;54.06;102495.47;5072358;28;20112;-60
2022/05/09 06:36:44;;;;;;;19.17;7.60;;;;;;;13.18;53.80;102495.41;5074147;28;20078;-61
2022/05/09 06:39:10;;;;;;;18.33;8.48;;;;;;;13.29;53.27;102494.91;5073540;28;20024;-60
2022/05/09 06:41:36;;;;;;;14.45;7.75;;;;;;;13.42;52.87;102493.38;5074405;28;20028;-60
2022/05/09 06:44:03;;;;;;;20.50;8.05;;;;;;;13.59;52.76;102485.41;5072201;28;20035;-60
2022/05/09 06:46:28;;;;;;;16.23;8.15;;;;;;;13.59;52.25;102472.03;5069794;28;20551;-60
2022/05/09 06:48:56;;;;;;;15.20;7.80;;;;;;;13.77;51.88;102490.78;5072359;28;20037;-60
2022/05/09 06:51:22;;;;;;;20.52;8.43;;;;;;;13.91;51.62;102480.22;5074048;28;20463;-60
2022/05/09 06:53:51;;;;;;;16.83;8.23;;;;;;;13.93;51.58;102475.66;5072751;28;20027;-60
2022/05/09 06:56:17;;;;;;;18.88;8.27;;;;;;;14.11;51.09;102481.00;5074098;28;20025;-60
2022/05/09 06:58:45;;;;;;;18.27;8.38;;;;;;;14.12;50.77;102482.75;5052628;28;20098;-60
2022/05/09 07:01:15;;;;;;;23.48;8.32;;;;;;;14.06;51.04;102474.09;5056006;28;20098;-60
2022/05/09 07:03:42;;;;;;;14.93;8.23;;;;;;;14.33;50.78;102484.31;5070217;28;20499;-60
2022/05/09 07:06:07;;;;;;;20.30;8.27;;;;;;;14.48;51.27;102485.31;5072450;28;20033;-60
2022/05/09 07:08:34;;;;;;;17.38;7.95;;;;;;;14.62;50.89;102481.91;5072682;28;20028;-60
2022/05/09 07:11:01;;;;;;;21.27;8.60;;;;;;;14.73;50.19;102483.06;5074129;28;20089;-60
2022/05/09 07:13:27;;;;;;;16.27;7.43;;;;;;;14.80;50.07;102483.63;5073536;28;20470;-60
2022/05/09 07:15:57;;;;;;;22.08;8.10;;;;;;;14.92;49.82;102477.56;5070044;28;20051;-60
2022/05/09 07:18:25;;;;;;;19.05;8.23;;;;;;;14.99;49.29;102475.41;5072570;28;20122;-60
2022/05/09 07:20:50;;;;;;;16.60;8.32;;;;;;;15.10;49.02;102477.50;5071489;28;20020;-60
2022/05/09 07:23:16;;;;;;;16.77;8.70;;;;;;;15.21;48.85;102480.44;5053206;28;20043;-60
2022/05/09 07:25:42;;;;;;;18.58;8.50;;;;;;;15.40;48.63;102485.63;5072249;28;20024;-60
2022/05/09 07:28:09;;;;;;;19.05;8.25;;;;;;;15.46;48.52;102485.25;5071787;28;20036;-60
2022/05/09 07:30:34;;;;;;;14.13;7.88;;;;;;;15.59;47.92;102474.72;5071137;28;20565;-61
2022/05/09 07:33:00;;;;;;;18.42;7.93;;;;;;;15.57;48.12;102482.84;5071775;28;20028;-60
2022/05/09 07:35:26;;;;;;;15.73;7.95;;;;;;;15.61;48.05;102479.00;5070636;28;20035;-64
2022/05/09 07:37:52;;;;;;;16.48;7.65;;;;;;;15.81;47.67;102485.06;5070358;28;20490;-65
2022/05/09 07:40:18;;;;;;;14.10;7.50;;;;;;;15.93;46.80;102467.38;5069484;28;20028;-65
2022/05/09 07:42:46;;;;;;;14.85;7.90;;;;;;;16.13;47.44;102473.28;5070845;28;20442;-65
2022/05/09 07:45:18;;;;;;;17.70;7.70;;;;;;;16.31;47.41;102479.34;5071593;28;20033;-65
2022/05/09 07:47:44;;;;;;;16.98;7.55;;;;;;;16.50;46.42;102479.09;5073238;28;20032;-65
2022/05/09 07:50:12;;;;;;;19.63;8.15;;;;;;;16.53;45.99;102470.84;5070459;28;20037;-65
2022/05/09 07:52:42;;;;;;;17.27;7.30;;;;;;;16.64;45.76;102485.41;5071832;28;20079;-64
2022/05/09 07:55:09;;;;;;;14.88;7.88;;;;;;;16.68;46.61;102477.06;5069082;28;20085;-65
2022/05/09 07:57:37;;;;;;;14.60;7.38;;;;;;;16.85;46.28;102477.84;5053763;28;20422;-64
2022/05/09 08:00:05;;;;;;;16.05;7.32;;;;;;;17.05;46.52;102484.66;5071416;28;20377;-65
2022/05/09 08:02:32;;;;;;;11.35;6.97;;;;;;;17.38;45.56;102473.50;5070077;28;20024;-65
2022/05/09 08:04:58;;;;;;;17.50;7.20;;;;;;;17.37;44.64;102472.66;5071146;28;20029;-64
2022/05/09 08:07:23;;;;;;;16.75;7.63;;;;;;;17.46;44.64;102480.09;5055045;28;20060;-64
2022/05/09 08:09:49;;;;;;;17.15;7.10;;;;;;;17.43;44.01;102477.63;5054028;28;20059;-64
2022/05/09 08:12:15;;;;;;;19.20;7.28;;;;;;;17.48;43.73;102470.13;5071803;28;20024;-65
2022/05/09 08:14:40;;;;;;;17.10;8.00;;;;;;;17.53;44.00;102477.00;5072956;28;20503;-66
2022/05/09 08:17:09;;;;;;;15.73;6.82;;;;;;;17.81;43.66;102471.53;5073347;28;20514;-66
2022/05/09 08:19:38;;;;;;;14.55;6.30;;;;;;;18.01;42.55;102475.56;5072670;28;20047;-65
2022/05/09 08:22:04;;;;;;;15.30;6.82;;;;;;;18.18;42.02;102477.13;5073263;28;20114;-64
2022/05/09 08:24:30;;;;;;;17.50;7.45;;;;;;;18.35;41.61;102473.22;5072527;28;20100;-65
2022/05/09 08:26:56;;;;;;;12.40;6.90;;;;;;;18.42;41.94;102474.53;5072861;28;20029;-64
2022/05/09 08:29:23;;;;;;;14.60;7.05;;;;;;;18.42;41.31;102479.06;5071263;28;20099;-66
2022/05/09 08:31:49;;;;;;;14.70;6.93;;;;;;;18.44;41.43;102471.72;5072921;28;20020;-66
2022/05/09 08:34:15;;;;;;;16.02;6.72;;;;;;;18.60;41.33;102472.38;5053415;28;20058;-65
2022/05/09 08:36:53;;;;;;;11.30;6.53;;;;;;;18.84;41.12;102472.47;5055170;28;20115;-66
2022/05/09 08:39:19;;;;;;;16.65;7.18;;;;;;;18.90;40.47;102471.16;5071297;28;20095;-65
2022/05/09 08:42:00;;;;;;;14.02;6.07;;;;;;;19.04;41.04;102474.59;5072089;28;20024;-66
2022/05/09 08:44:57;;;;;;;17.25;6.45;;;;;;;19.26;41.31;102483.78;5071028;28;20063;-66
2022/05/09 08:47:41;;;;;;;15.13;5.15;;;;;;;19.48;40.52;102478.53;5072433;28;20021;-66
2022/05/09 08:50:44;;;;;;;9.93;5.50;;;;;;;19.62;40.08;102471.22;5071610;28;20112;-66
2022/05/09 08:53:23;;;;;;;13.27;4.70;;;;;;;19.70;38.10;102475.09;5069616;28;20040;-66
2022/05/09 08:55:51;;;;;;;11.43;4.60;;;;;;;19.88;37.99;102485.47;5072003;28;20388;-66
2022/05/09 08:58:51;;;;;;;11.55;4.25;;;;;;;19.99;38.01;102474.72;5072232;28;20027;-66
2022/05/09 09:01:29;;;;;;;9.27;4.35;;;;;;;20.02;36.65;102447.47;5070328;28;20051;-66
2022/05/09 09:03:59;;;;;;;12.80;4.13;;;;;;;20.13;36.81;102460.13;5071645;28;20024;-66
2022/05/09 09:06:45;;;;;;;9.32;4.82;;;;;;;20.16;36.88;102458.06;5072103;28;20079;-66
2022/05/09 09:09:48;;;;;;;12.95;4.68;;;;;;;20.14;37.04;102457.31;5072048;28;20100;-66
2022/05/09 09:12:20;;;;;;;8.93;4.15;;;;;;;20.29;36.06;102448.97;5072197;28;20032;-66
2022/05/09 09:14:51;;;;;;;8.60;3.50;;;;;;;20.20;36.24;102448.72;5071854;28;20027;-65
2022/05/09 09:17:57;;;;;;;10.10;3.65;;;;;;;20.47;36.86;102455.66;5072563;28;20064;-65
2022/05/09 09:20:35;;;;;;;11.05;3.65;;;;;;;20.73;35.59;102448.16;5069986;28;20025;-66
2022/05/09 09:23:14;;;;;;;15.83;3.80;;;;;;;20.86;35.87;102448.06;5070760;28;20081;-66
2022/05/09 09:25:59;;;;;;;7.78;3.58;;;;;;;20.94;35.60;102445.59;5071465;28;20451;-66
2022/05/09 09:28:49;;;;;;;10.43;4.57;;;;;;;21.25;35.32;102445.75;5071174;28;20046;-66
2022/05/09 09:31:34;;;;;;;12.15;4.18;;;;;;;21.33;35.13;102444.13;5070544;28;20029;-66
2022/05/09 09:34:04;;;;;;;6.80;3.30;;;;;;;21.38;34.42;102442.91;5071307;28;20098;-66
2022/05/09 09:36:37;;;;;;;8.20;3.53;;;;;;;21.58;33.13;102443.94;5071694;28;20033;-65
2022/05/09 09:39:19;;;;;;;8.35;3.88;;;;;;;21.68;34.24;102443.03;5071409;28;20028;-65
2022/05/09 09:41:45;;;;;;;12.35;3.90;;;;;;;21.71;33.48;102426.53;5071716;28;20020;-66
2022/05/09 09:44:20;;;;;;;9.68;3.67;;;;;;;21.81;33.39;102425.75;5071270;28;20472;-66
2022/05/09 09:46:58;;;;;;;9.25;4.13;;;;;;;22.04;32.93;102432.75;5071832;28;20127;-65
2022/05/09 09:49:24;;;;;;;11.65;3.90;;;;;;;21.97;33.37;102440.56;5070916;28;20024;-65
2022/05/09 09:51:50;;;;;;;9.88;4.43;;;;;;;21.84;32.96;102429.03;5070363;28;20165;-65
2022/05/09 09:54:32;;;;;;;12.93;4.25;;;;;;;21.81;33.26;102425.75;5071124;28;20028;-66
2022/05/09 09:57:25;;;;;;;7.90;3.53;;;;;;;22.02;33.91;102433.88;5071866;28;20125;-65
2022/05/09 09:59:51;;;;;;;7.90;3.88;;;;;;;22.26;32.00;102431.75;5071416;28;20519;-65
2022/05/09 10:02:27;;;;;;;10.57;3.53;;;;;;;22.50;32.18;102428.75;5071361;28;20060;-65
2022/05/09 10:04:56;;;;;;;10.57;3.80;;;;;;;22.87;31.26;102417.28;5070923;28;20016;-65
2022/05/09 10:07:27;;;;;;;20.30;4.35;;;;;;;23.04;31.02;102423.94;5071237;28;20052;-65
2022/05/09 10:10:10;;;;;;;8.68;3.58;;;;;;;23.05;31.38;102418.34;5071233;28;20028;-65
2022/05/09 10:12:38;;;;;;;10.07;3.83;;;;;;;23.07;30.84;102410.94;5071435;28;20024;-65
2022/05/09 10:15:28;;;;;;;6.43;3.22;;;;;;;23.50;32.04;102408.81;5071261;28;20025;-65
2022/05/09 10:17:57;;;;;;;9.82;4.10;;;;;;;23.49;29.92;102405.25;5071488;28;20020;-65
2022/05/09 10:20:37;;;;;;;9.85;3.80;;;;;;;23.32;30.92;102398.69;5070686;28;20081;-65
2022/05/09 10:26:24;;;;;;;6.47;2.95;;;;;;;23.52;31.24;102399.53;5071592;28;20117;-65
2022/05/09 10:28:56;;;;;;;10.30;3.70;;;;;;;23.65;30.39;102393.81;5071113;28;20464;-65
2022/05/09 10:31:29;;;;;;;11.07;3.70;;;;;;;23.88;30.15;102380.78;5070315;28;20036;-65
2022/05/09 10:34:07;;;;;;;11.50;4.13;;;;;;;24.11;29.33;102385.88;5069627;28;20021;-65
2022/05/09 10:36:57;;;;;;;10.77;4.00;;;;;;;24.06;30.02;102386.34;5071147;28;20036;-65
2022/05/09 10:39:28;;;;;;;7.40;3.25;;;;;;;24.05;28.98;102383.75;5070920;28;20028;-65
2022/05/09 10:41:58;;;;;;;10.52;3.88;;;;;;;24.14;29.88;102369.25;5069978;28;20028;-65
2022/05/09 10:44:40;;;;;;;10.50;3.15;;;;;;;24.28;29.82;102374.22;5070873;28;20016;-66
2022/05/09 10:47:10;;;;;;;10.35;4.22;;;;;;;24.24;29.92;102370.94;5071240;28;20024;-66
2022/05/09 10:49:41;;;;;;;13.57;3.33;;;;;;;24.64;29.26;102374.34;5070470;28;20502;-66
2022/05/09 10:52:20;;;;;;;12.43;3.50;;;;;;;24.67;29.06;102366.75;5070958;28;20082;-65
2022/05/09 10:54:53;;;;;;;12.13;4.13;;;;;;;24.70;28.95;102366.44;5070748;28;20021;-65
2022/05/09 10:57:30;;;;;;;8.02;3.30;;;;;;;24.74;28.64;102368.84;5072315;28;20028;-65
2022/05/09 11:00:05;;;;;;;13.00;3.67;;;;;;;24.76;29.04;102370.41;5074560;28;20499;-65
2022/05/09 11:02:38;;;;;;;11.88;3.70;;;;;;;24.72;28.84;102363.56;5074431;28;20078;-65
2022/05/09 11:05:05;;;;;;;9.40;3.78;;;;;;;24.89;28.48;102362.75;5073809;28;20094;-65
2022/05/09 11:07:39;;;;;;;12.45;4.18;;;;;;;24.82;29.39;102353.47;5072369;28;20056;-65
2022/05/09 11:10:26;;;;;;;7.38;3.60;;;;;;;25.18;29.87;102356.25;5074161;28;20029;-65
2022/05/09 11:13:16;;;;;;;11.63;3.75;;;;;;;25.45;29.39;102349.00;5074047;28;20030;-65
2022/05/09 11:15:57;;;;;;;12.45;4.00;;;;;;;25.49;28.70;102344.94;5073823;28;20429;-65
2022/05/09 11:18:32;;;;;;;9.98;3.67;;;;;;;25.58;28.49;102342.09;5074152;28;20036;-65
2022/05/09 11:21:17;;;;;;;13.93;3.92;;;;;;;25.86;28.66;102350.19;5073537;28;20386;-65
2022/05/09 11:23:48;;;;;;;9.95;4.47;;;;;;;25.42;28.37;102333.81;5074302;28;20040;-65
2022/05/09 11:26:24;;;;;;;8.98;4.05;;;;;;;25.43;28.43;102304.72;5072809;28;20102;-65
2022/05/09 11:29:01;;;;;;;11.57;4.00;;;;;;;25.46;28.12;102328.91;5073325;28;20097;-65
2022/05/09 11:32:02;;;;;;;11.68;4.63;;;;;;;25.56;28.71;102332.38;5074005;28;20099;-65
2022/05/09 11:34:52;;;;;;;9.75;4.53;;;;;;;25.88;28.74;102328.19;5073470;28;20031;-65
2022/05/09 11:37:35;;;;;;;16.80;5.03;;;;;;;26.42;28.34;102323.34;5074075;28;20031;-65
2022/05/09 11:40:12;;;;;;;10.88;4.05;;;;;;;26.54;27.20;102318.47;5073775;28;20028;-65
2022/05/09 11:43:27;;;;;;;10.98;3.97;;;;;;;26.95;27.59;102306.63;5073846;28;20396;-65